Time;durP1;ratioP1;P1;durP2;ratioP2;P2;SDS_P1;SDS_P2;PMS_P1;PMS_P2;Temp;Humidity;BMP_temperature;BMP_pressure;BME280_temperature;BME280_humidity;BME280_pressure;Samples;Min_cycle;Max_cycle;Signal;HPM_P1;HPM_P2
2021/04/27 00:01:09;;;;;;;11.50;3.70;;;;;;;;;;5011280;28;20637;-70
2021/04/27 00:03:35;;;;;;;7.20;3.30;;;;;;;;;;4992894;28;20076;-70
2021/04/27 00:06:01;;;;;;;13.18;3.97;;;;;;;;;;5016474;28;20037;-70
2021/04/27 00:08:27;;;;;;;7.10;3.25;;;;;;;;;;5003169;28;20021;-70
2021/04/27 00:10:53;;;;;;;6.15;3.08;;;;;;;;;;5009065;28;20054;-71
2021/04/27 00:13:19;;;;;;;7.18;3.13;;;;;;;;;;5007369;28;20137;-70
2021/04/27 00:15:45;;;;;;;6.93;3.28;;;;;;;;;;5020123;28;20428;-70
2021/04/27 00:18:11;;;;;;;9.00;4.30;;;;;;;;;;5018725;28;20080;-71
2021/04/27 00:20:37;;;;;;;9.73;4.80;;;;;;;;;;5020419;28;20514;-71
2021/04/27 00:23:04;;;;;;;8.82;3.70;;;;;;;;;;5017445;28;20034;-71
2021/04/27 00:25:30;;;;;;;6.00;2.95;;;;;;;;;;5015393;28;20034;-71
2021/04/27 00:27:56;;;;;;;6.47;4.32;;;;;;;;;;5029228;28;20538;-71
2021/04/27 00:30:23;;;;;;;11.98;5.53;;;;;;;;;;5020157;28;20022;-70
2021/04/27 00:32:49;;;;;;;9.90;4.22;;;;;;;;;;5023065;28;20510;-71
2021/04/27 00:35:16;;;;;;;12.68;4.68;;;;;;;;;;5023329;28;20048;-71
2021/04/27 00:37:42;;;;;;;10.65;4.22;;;;;;;;;;5018517;28;20026;-71
2021/04/27 00:40:09;;;;;;;9.35;3.42;;;;;;;;;;5022703;28;20487;-70
2021/04/27 00:42:36;;;;;;;9.70;3.78;;;;;;;;;;5020724;28;20037;-71
2021/04/27 00:45:03;;;;;;;9.05;3.95;;;;;;;;;;5014514;28;20041;-71
2021/04/27 00:47:29;;;;;;;9.82;3.75;;;;;;;;;;5021194;28;20045;-71
2021/04/27 00:49:55;;;;;;;10.35;4.65;;;;;;;;;;5019541;28;20491;-70
2021/04/27 00:52:22;;;;;;;9.32;4.03;;;;;;;;;;5019805;28;20040;-71
2021/04/27 00:54:48;;;;;;;8.20;3.88;;;;;;;;;;5025924;28;20068;-71
2021/04/27 00:57:14;;;;;;;8.40;3.78;;;;;;;;;;5027758;28;20088;-71
2021/04/27 00:59:40;;;;;;;7.80;3.88;;;;;;;;;;5013298;28;20026;-71
2021/04/27 01:02:06;;;;;;;5.45;3.95;;;;;;;;;;5026319;28;20060;-71
2021/04/27 01:04:34;;;;;;;8.52;3.53;;;;;;;;;;5010765;28;20029;-71
2021/04/27 01:07:00;;;;;;;6.70;4.03;;;;;;;;;;5008064;28;20037;-70
2021/04/27 01:09:29;;;;;;;10.27;3.63;;;;;;;;;;5011128;28;20034;-71
2021/04/27 01:12:00;;;;;;;7.53;3.45;;;;;;;;;;5001052;28;20026;-71
2021/04/27 01:14:31;;;;;;;10.75;5.53;;;;;;;;;;5003219;28;20026;-70
2021/04/27 01:17:00;;;;;;;9.02;3.65;;;;;;;;;;5010760;28;20076;-71
2021/04/27 01:19:33;;;;;;;9.27;3.97;;;;;;;;;;5009118;28;20085;-70
2021/04/27 01:21:59;;;;;;;14.60;4.18;;;;;;;;;;5015161;28;20069;-70
2021/04/27 01:24:34;;;;;;;9.93;4.32;;;;;;;;;;5012375;28;20041;-70
2021/04/27 01:27:02;;;;;;;9.23;3.67;;;;;;;;;;5010751;28;20030;-70
2021/04/27 01:29:29;;;;;;;8.55;4.32;;;;;;;;;;5006718;28;20034;-70
2021/04/27 01:31:56;;;;;;;10.40;3.92;;;;;;;;;;5006541;28;20419;-70
2021/04/27 01:34:28;;;;;;;11.82;4.78;;;;;;;;;;5007998;28;20033;-70
2021/04/27 01:36:54;;;;;;;9.63;4.22;;;;;;;;;;5014074;28;20080;-71
2021/04/27 01:39:25;;;;;;;7.88;4.03;;;;;;;;;;5017010;28;20017;-70
2021/04/27 01:41:51;;;;;;;9.88;4.13;;;;;;;;;;5007180;28;20023;-70
2021/04/27 01:44:18;;;;;;;8.93;3.92;;;;;;;;;;5015728;28;20038;-71
2021/04/27 01:46:45;;;;;;;10.27;5.00;;;;;;;;;;5000194;28;20484;-70
2021/04/27 01:49:12;;;;;;;7.18;4.03;;;;;;;;;;5010009;28;20499;-70
2021/04/27 01:51:38;;;;;;;6.57;3.55;;;;;;;;;;5008488;28;20096;-70
2021/04/27 01:54:04;;;;;;;6.28;3.90;;;;;;;;;;5019262;28;20022;-72
2021/04/27 01:56:31;;;;;;;10.10;4.28;;;;;;;;;;5030282;28;20034;-70
2021/04/27 01:58:57;;;;;;;13.13;3.97;;;;;;;;;;5006229;28;20029;-70
2021/04/27 02:01:22;;;;;;;6.85;3.88;;;;;;;;;;5008913;28;20445;-70
2021/04/27 02:03:49;;;;;;;5.53;4.10;;;;;;;;;;4998468;28;20038;-70
2021/04/27 02:06:16;;;;;;;11.05;4.00;;;;;;;;;;5006769;28;20037;-70
2021/04/27 02:08:47;;;;;;;9.75;3.80;;;;;;;;;;5004825;28;20058;-70
2021/04/27 02:11:13;;;;;;;8.98;4.05;;;;;;;;;;5006561;28;20472;-70
2021/04/27 02:13:39;;;;;;;7.72;4.18;;;;;;;;;;5003477;28;20022;-70
2021/04/27 02:16:05;;;;;;;8.30;4.35;;;;;;;;;;5005856;28;20682;-71
2021/04/27 02:18:36;;;;;;;6.38;4.05;;;;;;;;;;5017993;28;20127;-70
2021/04/27 02:21:03;;;;;;;7.45;3.95;;;;;;;;;;5009455;28;20073;-71
2021/04/27 02:23:30;;;;;;;7.75;4.45;;;;;;;;;;5003699;28;20033;-70
2021/04/27 02:25:56;;;;;;;8.48;4.40;;;;;;;;;;5008477;28;20033;-70
2021/04/27 02:28:23;;;;;;;13.02;5.05;;;;;;;;;;5012935;28;20030;-70
2021/04/27 02:30:49;;;;;;;8.73;4.50;;;;;;;;;;5008249;28;20064;-71
2021/04/27 02:33:15;;;;;;;6.88;4.72;;;;;;;;;;5010930;28;20489;-70
2021/04/27 02:35:41;;;;;;;8.52;4.18;;;;;;;;;;5011457;28;20069;-70
2021/04/27 02:38:07;;;;;;;10.27;3.92;;;;;;;;;;4998566;28;20034;-70
2021/04/27 02:40:33;;;;;;;10.20;4.95;;;;;;;;;;5012980;28;20033;-70
2021/04/27 02:43:01;;;;;;;6.68;3.88;;;;;;;;;;5008891;28;20034;-70
2021/04/27 02:45:33;;;;;;;9.18;4.60;;;;;;;;;;5003602;28;20406;-70
2021/04/27 02:48:09;;;;;;;11.80;4.40;;;;;;;;;;5002304;28;20038;-70
2021/04/27 02:50:36;;;;;;;10.52;4.63;;;;;;;;;;5021902;28;20063;-73
2021/04/27 02:53:02;;;;;;;11.70;4.75;;;;;;;;;;5007258;28;20034;-70
2021/04/27 02:55:28;;;;;;;8.60;4.47;;;;;;;;;;5012708;28;20113;-70
2021/04/27 02:57:54;;;;;;;8.38;4.47;;;;;;;;;;5006200;28;20101;-70
2021/04/27 03:00:20;;;;;;;9.90;4.57;;;;;;;;;;5003413;28;20104;-70
2021/04/27 03:02:46;;;;;;;12.68;4.75;;;;;;;;;;5007905;28;20372;-70
2021/04/27 03:05:13;;;;;;;10.93;4.63;;;;;;;;;;5016929;28;20115;-70
2021/04/27 03:07:39;;;;;;;8.43;3.78;;;;;;;;;;5002761;28;20029;-70
2021/04/27 03:10:05;;;;;;;8.77;4.60;;;;;;;;;;5019109;28;20044;-70
2021/04/27 03:12:31;;;;;;;8.13;4.22;;;;;;;;;;5014607;28;20025;-71
2021/04/27 03:14:57;;;;;;;9.32;4.88;;;;;;;;;;5007052;28;20030;-70
2021/04/27 03:17:23;;;;;;;9.30;4.82;;;;;;;;;;4995721;28;20037;-70
2021/04/27 03:19:49;;;;;;;7.45;4.35;;;;;;;;;;5010631;28;20081;-70
2021/04/27 03:22:15;;;;;;;11.98;4.57;;;;;;;;;;5005116;28;20029;-71
2021/04/27 03:24:41;;;;;;;6.55;4.80;;;;;;;;;;5000501;28;20100;-71
2021/04/27 03:27:07;;;;;;;9.57;3.95;;;;;;;;;;5009297;28;20041;-70
2021/04/27 03:29:33;;;;;;;12.75;5.97;;;;;;;;;;5008918;28;20064;-70
2021/04/27 03:31:59;;;;;;;11.75;4.55;;;;;;;;;;5002864;28;20066;-70
2021/04/27 03:34:25;;;;;;;10.30;5.10;;;;;;;;;;5010356;28;20395;-71
2021/04/27 03:36:51;;;;;;;8.07;4.70;;;;;;;;;;5007556;28;20075;-70
2021/04/27 03:39:17;;;;;;;8.13;4.75;;;;;;;;;;5004616;28;20031;-70
2021/04/27 03:41:42;;;;;;;8.00;4.63;;;;;;;;;;5013578;28;20215;-71
2021/04/27 03:44:08;;;;;;;8.63;4.60;;;;;;;;;;5003037;28;20049;-70
2021/04/27 03:46:34;;;;;;;11.38;4.35;;;;;;;;;;5008247;28;20056;-70
2021/04/27 03:49:00;;;;;;;7.97;4.75;;;;;;;;;;5001638;28;20056;-70
2021/04/27 03:51:26;;;;;;;9.13;4.50;;;;;;;;;;5026838;28;20049;-71
2021/04/27 03:53:52;;;;;;;10.88;5.07;;;;;;;;;;5039692;28;20021;-71
2021/04/27 03:56:18;;;;;;;9.18;3.95;;;;;;;;;;5025081;28;20038;-70
2021/04/27 03:58:44;;;;;;;12.43;4.57;;;;;;;;;;5011863;28;20052;-70
2021/04/27 04:01:10;;;;;;;11.98;4.43;;;;;;;;;;5011664;28;20484;-70
2021/04/27 04:03:40;;;;;;;12.35;4.60;;;;;;;;;;5011567;28;20018;-70
2021/04/27 04:06:06;;;;;;;7.23;3.87;;;;;;;;;;5007043;28;20030;-71
2021/04/27 04:08:32;;;;;;;7.25;4.85;;;;;;;;;;5015490;28;20347;-71
2021/04/27 04:10:58;;;;;;;6.32;3.88;;;;;;;;;;5011895;28;20530;-71
2021/04/27 04:13:24;;;;;;;9.95;4.78;;;;;;;;;;5003620;28;20037;-70
2021/04/27 04:15:50;;;;;;;14.70;4.65;;;;;;;;;;5015574;28;20113;-71
2021/04/27 04:18:16;;;;;;;10.75;4.95;;;;;;;;;;5006800;28;20495;-71
2021/04/27 04:20:42;;;;;;;9.10;4.97;;;;;;;;;;5019543;28;20156;-70
2021/04/27 04:23:08;;;;;;;8.32;4.90;;;;;;;;;;5017884;28;20041;-70
2021/04/27 04:25:34;;;;;;;6.63;4.47;;;;;;;;;;5013924;28;20033;-71
2021/04/27 04:28:00;;;;;;;9.77;4.50;;;;;;;;;;5017616;28;20054;-70
2021/04/27 04:30:26;;;;;;;8.38;4.50;;;;;;;;;;5010961;28;20533;-70
2021/04/27 04:32:53;;;;;;;7.97;5.07;;;;;;;;;;5007930;28;20037;-70
2021/04/27 04:35:20;;;;;;;10.80;4.72;;;;;;;;;;5003703;28;20479;-70
2021/04/27 04:37:47;;;;;;;9.30;5.35;;;;;;;;;;5008494;28;20022;-70
2021/04/27 04:40:13;;;;;;;7.55;4.00;;;;;;;;;;5012110;28;20029;-70
2021/04/27 04:42:40;;;;;;;9.70;4.97;;;;;;;;;;5009138;28;20447;-70
2021/04/27 04:45:06;;;;;;;9.25;4.68;;;;;;;;;;5009701;28;20092;-70
2021/04/27 04:47:32;;;;;;;7.70;4.60;;;;;;;;;;5003743;28;20030;-70
2021/04/27 04:49:58;;;;;;;6.65;3.83;;;;;;;;;;5014819;28;20104;-70
2021/04/27 04:52:24;;;;;;;7.88;4.10;;;;;;;;;;5011233;28;20024;-70
2021/04/27 04:54:50;;;;;;;9.32;4.72;;;;;;;;;;5014600;28;20034;-70
2021/04/27 04:57:16;;;;;;;6.88;4.30;;;;;;;;;;5013169;28;20048;-71
2021/04/27 04:59:42;;;;;;;12.43;4.15;;;;;;;;;;5001078;28;20109;-70
2021/04/27 05:02:08;;;;;;;9.75;4.15;;;;;;;;;;5009660;28;20372;-70
2021/04/27 05:04:34;;;;;;;7.30;4.05;;;;;;;;;;5011471;28;20483;-70
2021/04/27 05:07:05;;;;;;;6.43;4.38;;;;;;;;;;5009971;28;20479;-70
2021/04/27 05:09:31;;;;;;;7.25;4.30;;;;;;;;;;5009946;28;20044;-70
2021/04/27 05:11:58;;;;;;;13.52;4.38;;;;;;;;;;5010355;28;20251;-70
2021/04/27 05:14:24;;;;;;;8.35;4.68;;;;;;;;;;5010139;28;20033;-71
2021/04/27 05:16:50;;;;;;;9.88;4.00;;;;;;;;;;5012328;28;20030;-70
2021/04/27 05:19:16;;;;;;;11.63;3.70;;;;;;;;;;5008024;28;20141;-71
2021/04/27 05:21:42;;;;;;;9.07;3.90;;;;;;;;;;5006921;28;20026;-71
2021/04/27 05:24:08;;;;;;;6.63;3.83;;;;;;;;;;5008350;28;20408;-71
2021/04/27 05:26:34;;;;;;;6.05;3.60;;;;;;;;;;5011821;28;20033;-71
2021/04/27 05:29:00;;;;;;;8.93;5.40;;;;;;;;;;5003149;28;20045;-70
2021/04/27 05:31:26;;;;;;;5.18;3.75;;;;;;;;;;5004636;28;20116;-71
2021/04/27 05:33:52;;;;;;;8.27;4.55;;;;;;;;;;5011512;28;20002;-72
2021/04/27 05:36:18;;;;;;;7.30;3.90;;;;;;;;;;5033777;28;20052;-71
2021/04/27 05:38:44;;;;;;;11.70;4.10;;;;;;;;;;5014596;28;20022;-70
2021/04/27 05:41:10;;;;;;;17.63;4.25;;;;;;;;;;5018047;28;20025;-71
2021/04/27 05:43:35;;;;;;;6.75;3.97;;;;;;;;;;5012968;28;20026;-71
2021/04/27 05:46:01;;;;;;;8.85;3.88;;;;;;;;;;5007018;28;20033;-70
2021/04/27 05:48:27;;;;;;;8.23;3.90;;;;;;;;;;5005272;28;20040;-71
2021/04/27 05:50:53;;;;;;;7.00;3.75;;;;;;;;;;5005969;28;20083;-72
2021/04/27 05:53:19;;;;;;;11.32;3.67;;;;;;;;;;5009746;28;20034;-71
2021/04/27 05:55:45;;;;;;;6.63;3.90;;;;;;;;;;5009539;28;20530;-71
2021/04/27 05:58:11;;;;;;;10.18;4.38;;;;;;;;;;5008800;28;20037;-71
2021/04/27 06:00:38;;;;;;;6.80;4.00;;;;;;;;;;5015919;28;20022;-70
2021/04/27 06:03:04;;;;;;;9.65;4.35;;;;;;;;;;5004873;28;20042;-70
2021/04/27 06:05:30;;;;;;;10.15;4.40;;;;;;;;;;5015083;28;20449;-71
2021/04/27 06:07:56;;;;;;;8.00;4.43;;;;;;;;;;5022596;28;20021;-71
2021/04/27 06:10:22;;;;;;;11.10;4.82;;;;;;;;;;5017011;28;20026;-71
2021/04/27 06:12:49;;;;;;;11.75;5.05;;;;;;;;;;5010823;28;20410;-70
2021/04/27 06:15:17;;;;;;;7.80;4.38;;;;;;;;;;5006960;28;20109;-71
2021/04/27 06:17:43;;;;;;;6.05;4.13;;;;;;;;;;5023095;28;20032;-71
2021/04/27 06:20:10;;;;;;;7.07;3.95;;;;;;;;;;5023944;28;20034;-71
2021/04/27 06:22:36;;;;;;;7.50;4.05;;;;;;;;;;5021674;28;20033;-71
2021/04/27 06:25:03;;;;;;;8.73;4.65;;;;;;;;;;5025732;28;20032;-71
2021/04/27 06:27:29;;;;;;;9.05;4.95;;;;;;;;;;5029461;28;20360;-71
2021/04/27 06:29:56;;;;;;;5.35;4.18;;;;;;;;;;5015780;28;20034;-71
2021/04/27 06:32:22;;;;;;;11.57;4.80;;;;;;;;;;5038030;28;20033;-71
2021/04/27 06:34:48;;;;;;;11.60;4.10;;;;;;;;;;5031397;28;20026;-71
2021/04/27 06:37:14;;;;;;;7.55;4.78;;;;;;;;;;5027455;28;20034;-70
2021/04/27 06:39:41;;;;;;;7.18;4.30;;;;;;;;;;5019566;28;20380;-71
2021/04/27 06:42:08;;;;;;;6.85;4.15;;;;;;;;;;5008731;28;20027;-70
2021/04/27 06:44:34;;;;;;;6.78;4.43;;;;;;;;;;5023650;28;20061;-71
2021/04/27 06:47:00;;;;;;;6.60;4.32;;;;;;;;;;5034860;28;20025;-70
2021/04/27 06:49:26;;;;;;;9.70;4.63;;;;;;;;;;5002214;28;20030;-71
2021/04/27 06:51:52;;;;;;;9.23;4.28;;;;;;;;;;5005638;28;20034;-70
2021/04/27 06:54:19;;;;;;;10.68;3.70;;;;;;;;;;5015061;28;20034;-71
2021/04/27 06:56:45;;;;;;;7.57;4.22;;;;;;;;;;5003852;28;20100;-70
2021/04/27 06:59:13;;;;;;;7.10;3.67;;;;;;;;;;5010951;28;20030;-70
2021/04/27 07:01:39;;;;;;;7.75;4.13;;;;;;;;;;5000885;28;20018;-74
2021/04/27 07:04:05;;;;;;;7.53;4.13;;;;;;;;;;5017107;28;20036;-75
2021/04/27 07:06:31;;;;;;;7.30;4.45;;;;;;;;;;5017433;28;20040;-72
2021/04/27 07:08:57;;;;;;;12.68;4.57;;;;;;;;;;5013415;28;20101;-69
2021/04/27 07:11:23;;;;;;;10.25;5.20;;;;;;;;;;4999213;28;20030;-68
2021/04/27 07:13:49;;;;;;;7.18;4.00;;;;;;;;;;5002577;28;20049;-69
2021/04/27 07:16:17;;;;;;;5.95;3.50;;;;;;;;;;5006183;28;20030;-72
2021/04/27 07:18:43;;;;;;;6.43;3.70;;;;;;;;;;5014103;28;20112;-70
2021/04/27 07:21:09;;;;;;;9.00;3.45;;;;;;;;;;5025027;28;20104;-70
2021/04/27 07:23:35;;;;;;;8.30;4.13;;;;;;;;;;5004436;28;20033;-72
2021/04/27 07:26:01;;;;;;;10.07;5.07;;;;;;;;;;4998868;28;20038;-70
2021/04/27 07:28:27;;;;;;;4.95;3.67;;;;;;;;;;5010393;28;20023;-70
2021/04/27 07:30:53;;;;;;;5.53;3.70;;;;;;;;;;4990323;28;20373;-69
2021/04/27 07:33:19;;;;;;;7.32;3.67;;;;;;;;;;4993660;28;20032;-69
2021/04/27 07:35:45;;;;;;;6.30;4.05;;;;;;;;;;4989834;28;20041;-70
2021/04/27 07:38:11;;;;;;;6.20;3.88;;;;;;;;;;4992318;28;20480;-69
2021/04/27 07:40:37;;;;;;;5.10;3.72;;;;;;;;;;4993248;28;20030;-69
2021/04/27 07:43:04;;;;;;;6.38;3.80;;;;;;;;;;5001264;28;20033;-69
2021/04/27 07:45:31;;;;;;;6.03;3.97;;;;;;;;;;5005140;28;20021;-69
2021/04/27 07:48:00;;;;;;;8.75;3.83;;;;;;;;;;4996187;28;20128;-69
2021/04/27 07:50:27;;;;;;;8.55;3.92;;;;;;;;;;4996479;28;20026;-69
2021/04/27 07:52:53;;;;;;;8.45;4.45;;;;;;;;;;4994893;28;20554;-69
2021/04/27 07:55:19;;;;;;;6.45;4.20;;;;;;;;;;4992824;28;20061;-69
2021/04/27 07:57:45;;;;;;;4.57;3.00;;;;;;;;;;4993460;28;20050;-69
2021/04/27 08:00:11;;;;;;;5.68;3.80;;;;;;;;;;4998267;28;20060;-69
2021/04/27 08:02:37;;;;;;;6.32;3.85;;;;;;;;;;4988310;28;20027;-69
2021/04/27 08:05:04;;;;;;;7.18;4.28;;;;;;;;;;4990248;28;20108;-69
2021/04/27 08:07:30;;;;;;;10.20;3.90;;;;;;;;;;4987907;28;20109;-69
2021/04/27 08:09:56;;;;;;;7.53;4.10;;;;;;;;;;4999790;28;20436;-69
2021/04/27 08:12:22;;;;;;;5.70;3.67;;;;;;;;;;4994258;28;20037;-69
2021/04/27 08:14:48;;;;;;;8.63;3.65;;;;;;;;;;4992139;28;20030;-69
2021/04/27 08:17:14;;;;;;;7.70;3.65;;;;;;;;;;4996483;28;20069;-69
2021/04/27 08:19:40;;;;;;;9.07;3.78;;;;;;;;;;4996540;28;20391;-69
2021/04/27 08:22:06;;;;;;;7.75;3.53;;;;;;;;;;4993907;28;20085;-69
2021/04/27 08:24:33;;;;;;;6.43;3.78;;;;;;;;;;4998331;28;20368;-69
2021/04/27 08:26:59;;;;;;;6.72;3.30;;;;;;;;;;5001357;28;20057;-69
2021/04/27 08:29:25;;;;;;;8.25;4.15;;;;;;;;;;5004205;28;20483;-69
2021/04/27 08:31:51;;;;;;;10.05;4.03;;;;;;;;;;4996973;28;20054;-69
2021/04/27 08:34:17;;;;;;;10.20;3.75;;;;;;;;;;5006279;28;20056;-68
2021/04/27 08:36:43;;;;;;;7.10;3.67;;;;;;;;;;5004792;28;20476;-69
2021/04/27 08:39:10;;;;;;;9.48;4.20;;;;;;;;;;5005641;28;20038;-69
2021/04/27 08:41:37;;;;;;;7.72;3.70;;;;;;;;;;4996185;28;20045;-69
2021/04/27 08:44:03;;;;;;;6.65;3.83;;;;;;;;;;4997734;28;20023;-69
2021/04/27 08:46:29;;;;;;;7.65;3.67;;;;;;;;;;5006750;28;20072;-69
2021/04/27 08:48:56;;;;;;;5.80;4.65;;;;;;;;;;5009955;28;20026;-69
2021/04/27 08:51:22;;;;;;;6.45;3.78;;;;;;;;;;5006166;28;20365;-69
2021/04/27 08:53:48;;;;;;;9.90;4.20;;;;;;;;;;5005255;28;20065;-69
2021/04/27 08:56:14;;;;;;;5.85;3.80;;;;;;;;;;5007623;28;20026;-69
2021/04/27 08:58:41;;;;;;;6.97;3.90;;;;;;;;;;4994977;28;20496;-69
2021/04/27 09:01:07;;;;;;;7.55;3.83;;;;;;;;;;4997125;28;20583;-68
2021/04/27 09:03:52;;;;;;;10.93;4.05;;;;;;;;;;5005350;28;20046;-68
2021/04/27 09:06:21;;;;;;;5.25;3.67;;;;;;;;;;5001438;28;20648;-69
2021/04/27 09:08:48;;;;;;;7.85;3.80;;;;;;;;;;4992994;28;20161;-69
2021/04/27 09:11:32;;;;;;;8.00;3.50;;;;;;;;;;5002989;28;20034;-69
2021/04/27 09:14:21;;;;;;;6.25;3.67;;;;;;;;;;5010621;28;20518;-69
2021/04/27 09:16:55;;;;;;;6.47;3.78;;;;;;;;;;5009561;28;20097;-69
2021/04/27 09:19:41;;;;;;;7.47;3.80;;;;;;;;;;5008721;28;20052;-70
2021/04/27 09:22:16;;;;;;;6.05;3.75;;;;;;;;;;5005095;28;20441;-70
2021/04/27 09:24:47;;;;;;;6.65;4.22;;;;;;;;;;4995839;28;20030;-69
2021/04/27 09:27:28;;;;;;;4.88;3.60;;;;;;;;;;4996717;28;20543;-67
2021/04/27 09:29:54;;;;;;;5.82;4.13;;;;;;;;;;5012046;28;20092;-67
2021/04/27 09:32:31;;;;;;;7.38;4.20;;;;;;;;;;5013902;28;20029;-67
2021/04/27 09:34:57;;;;;;;4.97;3.45;;;;;;;;;;5017583;28;20021;-69
2021/04/27 09:37:23;;;;;;;5.75;4.03;;;;;;;;;;5019235;28;20502;-69
2021/04/27 09:39:51;;;;;;;5.90;4.20;;;;;;;;;;5017830;28;20029;-69
2021/04/27 09:42:21;;;;;;;5.85;3.92;;;;;;;;;;5017238;28;21426;-70
2021/04/27 09:44:50;;;;;;;14.70;4.47;;;;;;;;;;5011538;28;20511;-69
2021/04/27 09:47:22;;;;;;;4.82;4.07;;;;;;;;;;5011085;28;20021;-69
2021/04/27 09:49:57;;;;;;;7.90;3.60;;;;;;;;;;5021913;28;20041;-69
2021/04/27 09:52:23;;;;;;;5.32;3.58;;;;;;;;;;5022072;28;20129;-70
2021/04/27 09:54:58;;;;;;;5.75;4.10;;;;;;;;;;5013681;28;20033;-67
2021/04/27 09:57:28;;;;;;;5.75;4.18;;;;;;;;;;5024400;28;20057;-68
2021/04/27 09:59:55;;;;;;;8.38;3.80;;;;;;;;;;5026507;28;20484;-67
2021/04/27 10:02:21;;;;;;;5.13;3.85;;;;;;;;;;5010678;28;20029;-73
2021/04/27 10:04:48;;;;;;;4.40;3.65;;;;;;;;;;5012449;28;20030;-69
2021/04/27 10:07:16;;;;;;;9.35;4.00;;;;;;;;;;5021692;28;20057;-69
2021/04/27 10:09:43;;;;;;;10.00;4.70;;;;;;;;;;5014838;28;20083;-69
2021/04/27 10:12:09;;;;;;;5.82;4.05;;;;;;;;;;5015439;28;20029;-69
2021/04/27 10:14:35;;;;;;;8.15;3.95;;;;;;;;;;5013513;28;20053;-69
2021/04/27 10:17:02;;;;;;;7.72;4.25;;;;;;;;;;5010505;28;20022;-68
2021/04/27 10:19:28;;;;;;;8.07;4.22;;;;;;;;;;5009579;28;20493;-68
2021/04/27 10:21:54;;;;;;;6.55;3.72;;;;;;;;;;5020925;28;20046;-69
2021/04/27 10:24:26;;;;;;;7.38;3.60;;;;;;;;;;5012001;28;20072;-68
2021/04/27 10:26:52;;;;;;;6.90;4.25;;;;;;;;;;5010888;28;20026;-69
2021/04/27 10:29:18;;;;;;;5.68;4.28;;;;;;;;;;5017944;28;20104;-68
2021/04/27 10:31:45;;;;;;;6.85;4.13;;;;;;;;;;5010497;28;20076;-69
2021/04/27 10:34:12;;;;;;;8.20;4.45;;;;;;;;;;5014623;28;20433;-69
2021/04/27 10:36:51;;;;;;;8.70;4.32;;;;;;;;;;5016231;28;20010;-69
2021/04/27 10:39:18;;;;;;;13.50;4.50;;;;;;;;;;5013037;28;20053;-68
2021/04/27 10:41:57;;;;;;;10.60;4.82;;;;;;;;;;5023453;28;20031;-69
2021/04/27 10:44:23;;;;;;;11.45;4.25;;;;;;;;;;5024531;28;20022;-68
2021/04/27 10:46:52;;;;;;;7.28;3.90;;;;;;;;;;5018390;28;20026;-68
2021/04/27 10:49:20;;;;;;;5.25;3.72;;;;;;;;;;5022354;28;20033;-68
2021/04/27 10:51:47;;;;;;;8.02;4.22;;;;;;;;;;5019774;28;20459;-68
2021/04/27 10:54:24;;;;;;;6.57;3.70;;;;;;;;;;5022676;28;20411;-68
2021/04/27 10:57:17;;;;;;;4.63;3.42;;;;;;;;;;5021068;28;20107;-70
2021/04/27 10:59:51;;;;;;;5.53;3.97;;;;;;;;;;5019738;28;20069;-69
2021/04/27 11:02:19;;;;;;;4.93;3.05;;;;;;;;;;5034999;28;20032;-69
2021/04/27 11:04:46;;;;;;;4.93;3.40;;;;;;;;;;5017787;28;20432;-69
2021/04/27 11:07:30;;;;;;;7.15;4.07;;;;;;;;;;5023513;28;20100;-69
2021/04/27 11:12:44;;;;;;;8.80;4.00;;;;;;;;;;5025727;28;20391;-69
2021/04/27 11:15:21;;;;;;;6.65;3.50;;;;;;;;;;5022380;28;20057;-70
2021/04/27 11:18:10;;;;;;;5.22;3.47;;;;;;;;;;5028133;28;20032;-70
2021/04/27 11:20:43;;;;;;;8.07;4.18;;;;;;;;;;5038733;28;20128;-69
2021/04/27 11:23:09;;;;;;;7.22;3.70;;;;;;;;;;5021489;28;20567;-70
2021/04/27 11:25:35;;;;;;;6.78;3.65;;;;;;;;;;5019024;28;20097;-70
2021/04/27 11:28:01;;;;;;;6.05;3.13;;;;;;;;;;5027447;28;20030;-70
2021/04/27 11:30:33;;;;;;;6.45;3.30;;;;;;;;;;5030373;28;20040;-69
2021/04/27 11:33:03;;;;;;;5.22;3.35;;;;;;;;;;5035341;28;20030;-69
2021/04/27 11:35:38;;;;;;;9.10;3.38;;;;;;;;;;5020905;28;20064;-69
2021/04/27 11:38:06;;;;;;;7.18;3.22;;;;;;;;;;5036871;28;20124;-67
2021/04/27 11:40:35;;;;;;;5.28;4.13;;;;;;;;;;5018520;28;20490;-67
2021/04/27 11:43:11;;;;;;;5.38;3.75;;;;;;;;;;5031118;28;20029;-70
2021/04/27 11:45:38;;;;;;;5.40;3.70;;;;;;;;;;5018959;28;20497;-69
2021/04/27 11:48:05;;;;;;;4.03;3.42;;;;;;;;;;5014430;28;20069;-69
2021/04/27 11:50:32;;;;;;;7.57;4.13;;;;;;;;;;5011380;28;20060;-70
2021/04/27 11:53:03;;;;;;;6.28;3.50;;;;;;;;;;5017473;28;20026;-70
2021/04/27 11:55:31;;;;;;;7.28;4.13;;;;;;;;;;5015414;28;20539;-70
2021/04/27 11:58:03;;;;;;;5.85;3.63;;;;;;;;;;5010621;28;20030;-68
2021/04/27 12:00:34;;;;;;;6.03;4.22;;;;;;;;;;5013806;28;20026;-70
2021/04/27 12:03:12;;;;;;;7.18;4.03;;;;;;;;;;5011225;28;20391;-70
2021/04/27 12:05:38;;;;;;;6.32;3.97;;;;;;;;;;5010883;28;20029;-69
2021/04/27 12:08:17;;;;;;;7.28;3.63;;;;;;;;;;5012484;28;20438;-69
2021/04/27 12:10:44;;;;;;;4.87;3.37;;;;;;;;;;5014844;28;20480;-70
2021/04/27 12:13:17;;;;;;;9.70;3.88;;;;;;;;;;5018346;28;20781;-70
2021/04/27 12:15:43;;;;;;;5.53;3.83;;;;;;;;;;5016095;28;20053;-70
2021/04/27 12:18:09;;;;;;;6.90;3.85;;;;;;;;;;5017446;28;20046;-70
2021/04/27 12:20:35;;;;;;;7.68;3.78;;;;;;;;;;5014114;28;20021;-70
2021/04/27 12:23:04;;;;;;;5.97;3.78;;;;;;;;;;5018276;28;20029;-70
2021/04/27 12:25:30;;;;;;;13.18;3.97;;;;;;;;;;5021120;28;20037;-70
2021/04/27 12:28:06;;;;;;;5.47;4.10;;;;;;;;;;5016268;28;20030;-69
2021/04/27 12:30:34;;;;;;;5.68;3.92;;;;;;;;;;5021088;28;20057;-69
2021/04/27 12:33:04;;;;;;;8.57;4.00;;;;;;;;;;5018917;28;20033;-70
2021/04/27 12:35:31;;;;;;;8.13;4.40;;;;;;;;;;5012350;28;20018;-70
2021/04/27 12:38:11;;;;;;;5.53;4.40;;;;;;;;;;5014878;28;20391;-70
2021/04/27 12:40:39;;;;;;;6.43;4.18;;;;;;;;;;5012371;28;20021;-70
2021/04/27 12:43:08;;;;;;;6.53;3.67;;;;;;;;;;5016441;28;20025;-70
2021/04/27 12:45:52;;;;;;;8.63;3.47;;;;;;;;;;5011772;28;20468;-70
2021/04/27 12:48:19;;;;;;;7.00;4.70;;;;;;;;;;5022104;28;20037;-70
2021/04/27 12:50:53;;;;;;;5.78;3.85;;;;;;;;;;5019368;28;20080;-69
2021/04/27 12:53:19;;;;;;;8.40;4.30;;;;;;;;;;5034070;28;20108;-69
2021/04/27 12:55:53;;;;;;;7.85;3.92;;;;;;;;;;5014342;28;20057;-69
2021/04/27 12:58:21;;;;;;;8.68;4.38;;;;;;;;;;5020853;28;20029;-69
2021/04/27 13:00:57;;;;;;;5.68;3.92;;;;;;;;;;5021587;28;20514;-69
2021/04/27 13:03:24;;;;;;;6.35;4.00;;;;;;;;;;5014747;28;20029;-69
2021/04/27 13:05:51;;;;;;;9.07;4.60;;;;;;;;;;5012262;28;20033;-69
2021/04/27 13:08:18;;;;;;;8.80;3.70;;;;;;;;;;5028224;28;20037;-68
2021/04/27 13:10:45;;;;;;;6.75;4.18;;;;;;;;;;5024026;28;20028;-69
2021/04/27 13:13:12;;;;;;;5.22;3.90;;;;;;;;;;5023188;28;20112;-68
2021/04/27 13:15:38;;;;;;;5.70;4.05;;;;;;;;;;5029697;28;20029;-69
2021/04/27 13:18:06;;;;;;;7.47;4.03;;;;;;;;;;5012694;28;20040;-68
2021/04/27 13:20:40;;;;;;;8.90;4.47;;;;;;;;;;5015202;28;20065;-67
2021/04/27 13:23:07;;;;;;;8.27;4.25;;;;;;;;;;5019299;28;20025;-67
2021/04/27 13:25:36;;;;;;;9.27;3.88;;;;;;;;;;5019025;28;20405;-68
2021/04/27 13:28:04;;;;;;;6.03;3.75;;;;;;;;;;5022330;28;20071;-67
2021/04/27 13:30:31;;;;;;;6.68;4.15;;;;;;;;;;5026038;28;20026;-67
2021/04/27 13:33:10;;;;;;;5.53;3.80;;;;;;;;;;5020243;28;20018;-68
2021/04/27 13:35:38;;;;;;;5.53;3.80;;;;;;;;;;5024881;28;20514;-68
2021/04/27 13:38:05;;;;;;;6.53;4.53;;;;;;;;;;5021181;28;20037;-68
2021/04/27 13:40:32;;;;;;;4.43;3.92;;;;;;;;;;5026235;28;20112;-67
2021/04/27 13:43:00;;;;;;;6.47;3.72;;;;;;;;;;5027164;28;20493;-68
2021/04/27 13:45:30;;;;;;;4.55;3.60;;;;;;;;;;5031971;28;20027;-68
2021/04/27 13:48:07;;;;;;;8.68;4.63;;;;;;;;;;5020088;28;20057;-68
2021/04/27 13:50:33;;;;;;;5.25;3.60;;;;;;;;;;5027560;28;20492;-68
2021/04/27 13:53:00;;;;;;;7.07;3.80;;;;;;;;;;5020966;28;20032;-68
2021/04/27 13:55:26;;;;;;;5.30;3.63;;;;;;;;;;5021384;28;20068;-68
2021/04/27 13:57:52;;;;;;;7.13;4.00;;;;;;;;;;5028881;28;20032;-67
2021/04/27 14:00:18;;;;;;;7.57;3.97;;;;;;;;;;5024807;28;20025;-68
2021/04/27 14:02:45;;;;;;;5.57;4.03;;;;;;;;;;5028350;28;20029;-68
2021/04/27 14:05:11;;;;;;;6.90;3.30;;;;;;;;;;5024748;28;20022;-68
2021/04/27 14:07:39;;;;;;;7.57;4.07;;;;;;;;;;5033038;28;20063;-68
2021/04/27 14:10:05;;;;;;;4.32;3.50;;;;;;;;;;5023071;28;20484;-68
2021/04/27 14:12:31;;;;;;;5.53;4.43;;;;;;;;;;5028440;28;20040;-68
2021/04/27 14:14:57;;;;;;;7.53;4.57;;;;;;;;;;5027494;28;20112;-68
2021/04/27 14:17:23;;;;;;;5.57;4.00;;;;;;;;;;5023944;28;20052;-68
2021/04/27 14:19:49;;;;;;;6.32;3.72;;;;;;;;;;5032370;28;20071;-68
2021/04/27 14:22:16;;;;;;;11.48;3.78;;;;;;;;;;5023496;28;20026;-68
2021/04/27 14:24:42;;;;;;;4.65;3.72;;;;;;;;;;5028980;28;20464;-67
2021/04/27 14:27:12;;;;;;;7.35;3.92;;;;;;;;;;5023145;28;20026;-68
2021/04/27 14:29:38;;;;;;;7.85;4.07;;;;;;;;;;5034348;28;20017;-68
2021/04/27 14:32:04;;;;;;;5.95;3.60;;;;;;;;;;5028923;28;20099;-68
2021/04/27 14:34:30;;;;;;;6.57;3.95;;;;;;;;;;5037040;28;20030;-68
2021/04/27 14:36:56;;;;;;;5.45;4.38;;;;;;;;;;5026034;28;20055;-69
2021/04/27 14:39:22;;;;;;;5.03;3.72;;;;;;;;;;5014560;28;20032;-69
2021/04/27 14:41:48;;;;;;;12.43;4.40;;;;;;;;;;5009336;28;20017;-69
2021/04/27 14:44:14;;;;;;;6.38;3.83;;;;;;;;;;5011495;28;20108;-69
2021/04/27 14:46:40;;;;;;;6.65;3.60;;;;;;;;;;5009931;28;20101;-67